Terminal Aerodrome Forecast
Issued by NWS

Home | Current Version | Previous Version | Graphics & Text | Print | Product List | Glossary On
Versions: 1 2 3 4 5 6 7 8 9 10 11 12 13 14 15 16 17 18 19 20 21 22 23 24 25 26 27 28 29 30 31 32
843
FTUS43 KLOT 280511 AAC
TAFDPA
TAF AMD
KDPA 280511Z 2805/2824 09008KT P6SM VCSH OVC024
      TEMPO 2805/2806 2SM TSRA FEW019 BKN024CB
     FM280900 09010G15KT 5SM -SHRA BR SCT008 OVC012
     FM281200 07012G16KT P6SM SCT007 OVC010
     FM281600 06014G20KT P6SM VCSH OVC015
     FM282100 05011KT P6SM OVC015=

USA.gov is the U.S. government's official web portal to all federal, state and local government web resources and services.